createdAt,value
2018-10-04T00:02:01.560Z,10.10
2018-10-04T00:04:29.112Z,9.90
2018-10-04T00:06:56.731Z,9.90
2018-10-04T00:09:25.014Z,9.90
2018-10-04T00:11:53.107Z,9.80
2018-10-04T00:14:20.608Z,9.80
2018-10-04T00:16:48.208Z,9.80
2018-10-04T00:19:15.730Z,9.70
2018-10-04T00:21:43.337Z,9.70
2018-10-04T00:24:10.903Z,9.70
2018-10-04T00:26:38.476Z,9.70
2018-10-04T00:29:06.082Z,9.70
2018-10-04T00:31:33.523Z,9.70
2018-10-04T00:34:01.040Z,9.70
2018-10-04T00:36:28.595Z,9.70
2018-10-04T00:38:56.143Z,9.80
2018-10-04T00:41:23.741Z,9.80
2018-10-04T00:43:51.286Z,9.70
2018-10-04T00:46:18.811Z,9.70
2018-10-04T00:48:46.290Z,9.50
2018-10-04T00:51:13.883Z,9.60
2018-10-04T00:53:41.371Z,9.50
2018-10-04T00:56:08.896Z,9.40
2018-10-04T00:58:36.457Z,9.40
2018-10-04T01:01:03.948Z,9.40
2018-10-04T01:03:31.506Z,9.30
2018-10-04T01:05:59.012Z,9.30
2018-10-04T01:08:26.903Z,9.30
2018-10-04T01:10:54.413Z,9.40
2018-10-04T01:13:21.876Z,9.40
2018-10-04T01:15:49.350Z,9.40
2018-10-04T01:18:28.124Z,9.40
2018-10-04T01:20:55.675Z,9.40
2018-10-04T01:23:23.099Z,9.30
2018-10-04T01:25:50.555Z,9.40
2018-10-04T01:28:18.166Z,9.40
2018-10-04T01:30:45.725Z,9.30
2018-10-04T01:33:13.259Z,9.30
2018-10-04T01:35:40.811Z,9.30
2018-10-04T01:38:08.572Z,9.30
2018-10-04T01:40:36.139Z,9.30
2018-10-04T01:43:03.633Z,9.20
2018-10-04T01:45:31.150Z,9.30
2018-10-04T01:47:58.603Z,9.30
2018-10-04T01:50:26.131Z,9.40
2018-10-04T01:52:53.635Z,9.10
2018-10-04T01:55:21.199Z,9.20
2018-10-04T01:57:48.749Z,9.20
2018-10-04T02:00:16.335Z,9.00
2018-10-04T02:02:43.904Z,9.00
2018-10-04T02:05:11.771Z,8.90
2018-10-04T02:07:39.278Z,9.00
2018-10-04T02:10:06.779Z,9.00
2018-10-04T02:12:34.347Z,9.00
2018-10-04T02:15:01.862Z,8.90
2018-10-04T02:17:29.354Z,9.00
2018-10-04T02:19:56.843Z,8.80
2018-10-04T02:22:25.013Z,9.00
2018-10-04T02:24:56.608Z,9.00
2018-10-04T02:27:25.683Z,9.00
2018-10-04T02:29:53.179Z,9.00
2018-10-04T02:32:24.775Z,9.00
2018-10-04T02:34:52.359Z,9.00
2018-10-04T02:37:19.899Z,9.00
2018-10-04T02:39:47.686Z,8.80
2018-10-04T02:42:15.327Z,8.80
2018-10-04T02:44:42.863Z,8.70
2018-10-04T02:47:10.408Z,8.70
2018-10-04T02:49:37.887Z,8.60
2018-10-04T02:52:05.969Z,8.60
2018-10-04T02:54:33.530Z,8.70
2018-10-04T02:57:01.594Z,8.70
2018-10-04T02:59:29.131Z,8.70
2018-10-04T03:01:56.834Z,8.80
2018-10-04T03:04:24.359Z,8.70
2018-10-04T03:06:51.895Z,8.70
2018-10-04T03:09:19.804Z,8.70
2018-10-04T03:11:47.320Z,8.70
2018-10-04T03:14:14.982Z,8.70
2018-10-04T03:16:42.621Z,8.70
2018-10-04T03:19:10.742Z,8.90
2018-10-04T03:21:38.330Z,8.60
2018-10-04T03:24:05.915Z,8.70
2018-10-04T03:26:33.786Z,8.70
2018-10-04T03:29:01.481Z,8.70
2018-10-04T03:31:28.979Z,8.50
2018-10-04T03:33:56.435Z,8.60
2018-10-04T03:36:23.967Z,8.50
2018-10-04T03:38:51.544Z,8.60
2018-10-04T03:41:19.569Z,8.50
2018-10-04T03:43:47.163Z,8.40
2018-10-04T03:46:14.663Z,8.40
2018-10-04T03:48:42.315Z,8.40
2018-10-04T03:51:09.914Z,8.40
2018-10-04T03:53:37.486Z,8.20
2018-10-04T03:56:04.990Z,8.20
2018-10-04T03:58:32.682Z,8.30
2018-10-04T04:01:00.175Z,8.30
2018-10-04T04:03:27.807Z,8.20
2018-10-04T04:05:55.614Z,8.40
2018-10-04T04:08:23.093Z,8.40
2018-10-04T04:10:50.640Z,8.40
2018-10-04T04:13:18.162Z,8.30
2018-10-04T04:15:45.703Z,8.20
2018-10-04T04:18:13.360Z,8.20
2018-10-04T04:20:40.851Z,8.20
2018-10-04T04:23:08.359Z,8.20
2018-10-04T04:25:35.843Z,8.10
2018-10-04T04:28:03.317Z,8.20
2018-10-04T04:30:30.852Z,8.20
2018-10-04T04:32:58.407Z,8.10
2018-10-04T04:35:25.965Z,8.10
2018-10-04T04:37:53.511Z,8.20
2018-10-04T04:40:21.043Z,8.30
2018-10-04T04:42:48.603Z,8.40
2018-10-04T04:45:16.192Z,8.40
2018-10-04T04:47:43.696Z,8.20
2018-10-04T04:50:11.159Z,8.10
2018-10-04T04:52:38.887Z,8.10
2018-10-04T04:55:18.310Z,8.30
2018-10-04T04:57:45.862Z,8.30
2018-10-04T05:00:13.387Z,8.10
2018-10-04T05:02:40.989Z,8.10
2018-10-04T05:05:08.475Z,8.10
2018-10-04T05:07:35.951Z,8.00
2018-10-04T05:10:03.471Z,7.90
2018-10-04T05:12:31.036Z,7.90
2018-10-04T05:14:58.587Z,7.90
2018-10-04T05:17:26.594Z,8.00
2018-10-04T05:19:54.191Z,8.10
2018-10-04T05:22:22.164Z,8.10
2018-10-04T05:24:49.575Z,8.00
2018-10-04T05:27:17.092Z,7.90
2018-10-04T05:29:44.691Z,7.80
2018-10-04T05:32:12.235Z,7.80
2018-10-04T05:34:39.872Z,7.80
2018-10-04T05:37:07.532Z,7.80
2018-10-04T05:39:35.016Z,7.80
2018-10-04T05:42:02.570Z,7.60
2018-10-04T05:44:30.372Z,7.80
2018-10-04T05:46:57.911Z,7.80
2018-10-04T05:49:25.461Z,7.70
2018-10-04T05:51:53.053Z,7.70
2018-10-04T05:54:20.591Z,7.70
2018-10-04T05:56:48.441Z,7.70
2018-10-04T05:59:15.998Z,7.90
2018-10-04T06:01:44.824Z,8.00
2018-10-04T06:04:13.159Z,8.00
2018-10-04T06:06:40.869Z,8.00
2018-10-04T06:09:08.596Z,8.00
2018-10-04T06:11:37.087Z,8.10
2018-10-04T06:14:04.941Z,8.00
2018-10-04T06:16:33.678Z,7.90
2018-10-04T06:19:02.363Z,7.90
2018-10-04T06:21:31.469Z,7.90
2018-10-04T06:24:02.734Z,7.90
2018-10-04T06:26:31.053Z,7.80
2018-10-04T06:28:59.417Z,8.00
2018-10-04T06:31:28.450Z,8.00
2018-10-04T06:33:59.317Z,7.90
2018-10-04T06:36:31.061Z,8.00
2018-10-04T06:38:59.555Z,8.00
2018-10-04T06:41:29.317Z,8.20
2018-10-04T06:44:01.407Z,8.20
2018-10-04T06:46:31.049Z,8.30
2018-10-04T06:49:00.165Z,8.20
2018-10-04T06:51:29.504Z,8.20
2018-10-04T06:54:02.359Z,8.20
2018-10-04T06:56:32.337Z,8.20
2018-10-04T06:59:00.715Z,8.30
2018-10-04T07:01:32.487Z,8.30
2018-10-04T07:04:01.821Z,8.30
2018-10-04T07:06:29.846Z,8.30
2018-10-04T07:08:58.989Z,8.30
2018-10-04T07:11:27.697Z,8.40
2018-10-04T07:13:56.280Z,8.50
2018-10-04T07:16:24.170Z,8.50
2018-10-04T07:18:53.484Z,8.50
2018-10-04T07:21:21.520Z,8.60
2018-10-04T07:23:55.356Z,8.70
2018-10-04T07:26:24.474Z,8.70
2018-10-04T07:28:53.534Z,8.80
2018-10-04T07:31:24.321Z,8.60
2018-10-04T07:33:55.037Z,8.90
2018-10-04T07:36:25.014Z,8.60
2018-10-04T07:38:53.715Z,8.90
2018-10-04T07:41:22.898Z,8.90
2018-10-04T07:46:39.993Z,9.00
2018-10-04T07:49:19.585Z,9.10
2018-10-04T07:51:48.082Z,9.10
2018-10-04T07:54:25.750Z,9.20
2018-10-04T07:56:56.294Z,9.20
2018-10-04T07:59:29.784Z,9.20
2018-10-04T08:01:58.166Z,9.20
2018-10-04T08:04:26.020Z,9.30
2018-10-04T08:06:58.595Z,9.30
2018-10-04T08:09:28.459Z,9.50
2018-10-04T08:11:56.800Z,9.50
2018-10-04T08:14:28.299Z,9.30
2018-10-04T08:16:56.742Z,9.60
2018-10-04T08:19:27.700Z,9.80
2018-10-04T08:21:57.493Z,9.70
2018-10-04T08:24:26.448Z,9.80
2018-10-04T08:26:59.968Z,9.80
2018-10-04T08:29:28.099Z,9.90
2018-10-04T08:31:57.268Z,10.00
2018-10-04T08:34:32.294Z,10.00
2018-10-04T08:37:02.590Z,10.10
2018-10-04T08:39:31.552Z,10.20
2018-10-04T08:41:59.798Z,10.30
2018-10-04T08:44:35.525Z,10.30
2018-10-04T08:47:05.548Z,10.50
2018-10-04T08:49:33.983Z,10.60
2018-10-04T08:52:03.428Z,10.70
2018-10-04T08:54:36.498Z,10.80
2018-10-04T08:57:04.871Z,10.90
2018-10-04T08:59:34.051Z,10.90
2018-10-04T09:02:04.004Z,11.00
2018-10-04T09:04:32.889Z,11.10
2018-10-04T09:07:02.089Z,11.20
2018-10-04T09:09:36.794Z,11.40
2018-10-04T09:12:05.964Z,11.00
2018-10-04T09:20:00.921Z,11.50
2018-10-04T09:22:30.454Z,11.50
2018-10-04T09:25:00.342Z,11.80
2018-10-04T09:27:37.451Z,11.90
2018-10-04T09:30:12.194Z,11.90
2018-10-04T09:32:40.031Z,12.00
2018-10-04T09:35:13.823Z,12.10
2018-10-04T09:37:44.486Z,12.20
2018-10-04T09:40:15.075Z,12.30
2018-10-04T09:42:43.949Z,12.40
2018-10-04T09:45:14.411Z,12.50
2018-10-04T09:47:44.245Z,12.60
2018-10-04T09:50:27.674Z,12.80
2018-10-04T09:53:04.933Z,12.80
2018-10-04T09:55:59.309Z,13.00
2018-10-04T09:58:39.947Z,13.10
2018-10-04T10:01:19.121Z,13.20
2018-10-04T10:06:47.861Z,13.40
2018-10-04T10:15:14.713Z,13.70
2018-10-04T10:17:51.936Z,13.80
2018-10-04T10:23:11.711Z,13.80
2018-10-04T10:29:52.438Z,14.00
2018-10-04T10:32:26.386Z,14.10
2018-10-04T10:34:59.468Z,14.10
2018-10-04T10:41:53.149Z,14.20
2018-10-04T10:47:41.966Z,14.30
2018-10-04T10:50:11.227Z,14.40
2018-10-04T10:52:46.426Z,14.40
2018-10-04T10:55:19.799Z,14.50
2018-10-04T10:57:49.707Z,14.60
2018-10-04T11:00:19.495Z,14.70
2018-10-04T11:03:00.944Z,14.90
2018-10-04T11:05:31.508Z,14.90
2018-10-04T11:08:05.938Z,14.90
2018-10-04T11:10:38.469Z,15.00
2018-10-04T11:13:13.667Z,15.00
2018-10-04T11:15:58.534Z,15.10
2018-10-04T11:18:30.736Z,15.20
2018-10-04T11:21:08.166Z,15.10
2018-10-04T11:23:42.900Z,15.30
2018-10-04T11:26:13.646Z,15.40
2018-10-04T11:28:46.330Z,15.50
2018-10-04T11:31:19.404Z,15.50
2018-10-04T11:33:51.391Z,15.60
2018-10-04T11:36:26.889Z,15.60
2018-10-04T11:39:04.808Z,15.70
2018-10-04T11:41:40.284Z,15.70
2018-10-04T11:44:23.092Z,15.70
2018-10-04T11:46:57.521Z,15.60
2018-10-04T11:49:30.309Z,15.70
2018-10-04T11:52:00.875Z,15.70
2018-10-04T11:54:30.147Z,15.80
2018-10-04T11:57:05.245Z,15.90
2018-10-04T11:59:34.746Z,16.00
2018-10-04T12:02:16.720Z,16.10
2018-10-04T12:04:48.294Z,16.10
2018-10-04T12:07:18.755Z,16.10
2018-10-04T12:09:48.705Z,16.30
2018-10-04T12:12:35.590Z,16.30
2018-10-04T12:15:05.083Z,16.20
2018-10-04T12:17:39.139Z,16.30
2018-10-04T12:20:07.747Z,16.30
2018-10-04T12:22:45.635Z,16.30
2018-10-04T12:25:24.849Z,16.50
2018-10-04T12:28:03.461Z,16.50
2018-10-04T12:30:36.277Z,16.50
2018-10-04T12:35:56.004Z,16.60
2018-10-04T12:38:30.245Z,16.70
2018-10-04T12:40:59.054Z,16.70
2018-10-04T12:43:32.551Z,16.70
2018-10-04T12:46:03.140Z,16.70
2018-10-04T12:48:34.312Z,16.70
2018-10-04T12:51:18.823Z,16.80
2018-10-04T12:53:53.189Z,16.80
2018-10-04T12:56:22.385Z,16.80
2018-10-04T13:01:32.326Z,16.80
2018-10-04T13:04:00.722Z,16.90
2018-10-04T13:06:49.673Z,16.90
2018-10-04T13:09:23.614Z,17.10
2018-10-04T13:11:52.892Z,17.20
2018-10-04T13:14:24.735Z,17.10
2018-10-04T13:17:02.391Z,17.10
2018-10-04T13:19:32.830Z,17.00
2018-10-04T13:22:04.259Z,17.10
2018-10-04T13:24:34.286Z,17.10
2018-10-04T13:27:11.540Z,17.20
2018-10-04T13:29:43.989Z,17.10
2018-10-04T13:32:14.503Z,17.20
2018-10-04T13:34:52.766Z,17.30
2018-10-04T13:37:26.205Z,17.20
2018-10-04T13:52:30.946Z,17.30
2018-10-04T13:55:22.643Z,17.30
2018-10-04T14:00:31.067Z,17.20
2018-10-04T14:03:03.580Z,17.30
2018-10-04T14:08:23.063Z,17.60
2018-10-04T14:10:54.416Z,17.70
2018-10-04T14:13:26.247Z,17.70
2018-10-04T14:15:56.752Z,17.70
2018-10-04T14:18:29.122Z,17.80
2018-10-04T14:21:07.442Z,17.80
2018-10-04T14:26:32.363Z,17.90
2018-10-04T14:29:05.159Z,17.90
2018-10-04T14:31:45.893Z,17.90
2018-10-04T14:34:15.309Z,18.10
2018-10-04T14:42:27.793Z,18.10
2018-10-04T14:45:02.171Z,18.10
2018-10-04T14:47:43.867Z,18.20
2018-10-04T14:50:23.212Z,18.10
2018-10-04T14:53:00.908Z,18.00
2018-10-04T14:55:46.192Z,18.10
2018-10-04T14:58:29.925Z,18.10
2018-10-04T15:03:58.483Z,18.30
2018-10-04T15:09:54.736Z,18.20
2018-10-04T15:12:28.553Z,18.30
2018-10-04T15:15:14.585Z,18.30
2018-10-04T15:17:45.370Z,18.30
2018-10-04T15:23:07.724Z,18.10
2018-10-04T15:28:36.021Z,17.90
2018-10-04T15:31:06.888Z,18.00
2018-10-04T15:33:42.151Z,18.00
2018-10-04T15:36:22.726Z,18.10
2018-10-04T15:57:19.120Z,17.80
2018-10-04T15:59:53.269Z,17.70
2018-10-04T16:02:36.395Z,17.70
2018-10-04T16:07:54.793Z,17.60
2018-10-04T16:13:54.072Z,17.50
2018-10-04T16:19:01.875Z,17.40
2018-10-04T16:21:36.183Z,17.30
2018-10-04T16:24:07.518Z,17.30
2018-10-04T16:29:23.384Z,17.20
2018-10-04T16:32:00.877Z,17.10
2018-10-04T16:34:32.648Z,17.10
2018-10-04T16:37:09.001Z,17.00
2018-10-04T16:39:45.315Z,16.90
2018-10-04T16:42:15.388Z,17.00
2018-10-04T16:50:51.703Z,16.60
2018-10-04T16:53:21.695Z,16.50
2018-10-04T16:55:51.002Z,16.30
2018-10-04T16:58:21.971Z,16.20
2018-10-04T17:00:53.680Z,16.10
2018-10-04T17:03:38.875Z,16.10
2018-10-04T17:06:10.211Z,15.90
2018-10-04T17:08:44.284Z,15.70
2018-10-04T17:11:17.011Z,15.70
2018-10-04T17:13:49.158Z,15.60
2018-10-04T17:16:23.506Z,15.50
2018-10-04T17:19:11.016Z,15.40
2018-10-04T17:24:22.385Z,15.20
2018-10-04T17:26:52.067Z,15.10
2018-10-04T17:32:06.131Z,14.90
2018-10-04T17:34:38.864Z,14.80
2018-10-04T17:37:17.799Z,14.70
2018-10-04T17:40:02.775Z,14.60
2018-10-04T17:42:39.254Z,14.50
2018-10-04T17:45:27.353Z,14.40
2018-10-04T17:48:02.976Z,14.40
2018-10-04T17:50:37.865Z,14.30
2018-10-04T17:53:07.154Z,14.20
2018-10-04T17:55:41.739Z,14.20
2018-10-04T17:58:14.639Z,14.20
2018-10-04T18:00:48.826Z,14.10
2018-10-04T18:03:19.796Z,14.10
2018-10-04T18:08:47.940Z,14.00
2018-10-04T18:11:17.542Z,13.90
2018-10-04T18:13:51.838Z,13.80
2018-10-04T18:16:21.073Z,13.80
2018-10-04T18:18:51.438Z,13.80
2018-10-04T18:21:20.963Z,13.60
2018-10-04T18:23:59.042Z,13.50
2018-10-04T18:26:30.349Z,13.50
2018-10-04T18:28:59.592Z,13.50
2018-10-04T18:31:28.698Z,13.40
2018-10-04T18:33:58.743Z,13.40
2018-10-04T18:36:29.671Z,13.30
2018-10-04T18:39:05.109Z,13.30
2018-10-04T18:41:35.580Z,13.20
2018-10-04T18:44:08.801Z,13.20
2018-10-04T18:46:45.790Z,13.20
2018-10-04T18:49:18.587Z,13.10
2018-10-04T18:51:50.489Z,13.10
2018-10-04T18:54:20.271Z,13.10
2018-10-04T18:56:52.660Z,12.90
2018-10-04T18:59:34.568Z,12.90
2018-10-04T19:04:55.919Z,12.90
2018-10-04T19:07:41.805Z,12.80
2018-10-04T19:13:07.269Z,12.80
2018-10-04T19:18:23.324Z,12.70
2018-10-04T19:20:53.162Z,12.70
2018-10-04T19:23:29.653Z,12.60
2018-10-04T19:26:05.070Z,12.60
2018-10-04T19:31:21.676Z,12.60
2018-10-04T19:33:51.128Z,12.50
2018-10-04T19:36:24.150Z,12.50
2018-10-04T19:41:38.180Z,12.30
2018-10-04T19:44:25.521Z,12.50
2018-10-04T19:46:56.053Z,12.50
2018-10-04T19:49:24.686Z,12.40
2018-10-04T19:51:52.500Z,12.40
2018-10-04T19:54:20.424Z,12.30
2018-10-04T19:56:48.203Z,12.30
2018-10-04T19:59:15.845Z,12.20
2018-10-04T20:01:44.333Z,12.20
2018-10-04T20:04:11.963Z,12.10
2018-10-04T20:06:39.968Z,12.10
2018-10-04T20:09:08.395Z,12.10
2018-10-04T20:11:36.840Z,12.10
2018-10-04T20:14:04.636Z,11.80
2018-10-04T20:16:33.555Z,12.10
2018-10-04T20:21:53.159Z,12.00
2018-10-04T20:24:25.042Z,12.00
2018-10-04T20:26:52.859Z,12.00
2018-10-04T20:29:20.637Z,12.00
2018-10-04T20:31:48.347Z,12.00
2018-10-04T20:34:16.098Z,12.00
2018-10-04T20:36:43.751Z,11.90
2018-10-04T20:39:11.730Z,11.90
2018-10-04T20:41:39.388Z,11.90
2018-10-04T20:44:07.180Z,11.90
2018-10-04T20:46:34.670Z,11.90
2018-10-04T20:49:02.241Z,11.80
2018-10-04T20:51:29.795Z,11.80
2018-10-04T20:53:57.606Z,11.80
2018-10-04T20:56:25.224Z,11.80
2018-10-04T20:58:52.765Z,11.80
2018-10-04T21:01:20.247Z,11.80
2018-10-04T21:03:47.751Z,11.80
2018-10-04T21:06:15.299Z,11.80
2018-10-04T21:08:42.859Z,11.80
2018-10-04T21:11:10.362Z,11.80
2018-10-04T21:13:37.905Z,11.80
2018-10-04T21:16:05.424Z,11.80
2018-10-04T21:18:33.075Z,11.80
2018-10-04T21:21:00.645Z,11.80
2018-10-04T21:23:28.303Z,11.80
2018-10-04T21:25:55.783Z,11.70
2018-10-04T21:28:23.368Z,11.70
2018-10-04T21:30:50.963Z,11.70
2018-10-04T21:33:18.438Z,11.70
2018-10-04T21:35:46.339Z,11.80
2018-10-04T21:38:14.529Z,11.70
2018-10-04T21:40:42.079Z,11.70
2018-10-04T21:43:09.545Z,11.60
2018-10-04T21:45:37.019Z,11.60
2018-10-04T21:48:04.623Z,11.50
2018-10-04T21:50:32.137Z,11.40
2018-10-04T21:52:59.705Z,11.40
2018-10-04T21:55:27.255Z,11.40
2018-10-04T21:57:59.395Z,11.30
2018-10-04T22:00:26.930Z,11.30
2018-10-04T22:02:54.421Z,11.30
2018-10-04T22:05:21.996Z,11.20
2018-10-04T22:07:49.790Z,11.20
2018-10-04T22:10:17.238Z,11.20
2018-10-04T22:12:44.707Z,11.10
2018-10-04T22:15:12.533Z,11.10
2018-10-04T22:17:39.943Z,11.10
2018-10-04T22:20:07.467Z,11.10
2018-10-04T22:22:35.298Z,11.00
2018-10-04T22:25:05.021Z,11.00
2018-10-04T22:27:32.791Z,11.10
2018-10-04T22:30:00.246Z,11.10
2018-10-04T22:32:27.665Z,11.10
2018-10-04T22:34:55.235Z,11.10
2018-10-04T22:37:22.847Z,11.10
2018-10-04T22:39:50.535Z,11.00
2018-10-04T22:42:18.966Z,11.00
2018-10-04T22:44:46.520Z,11.10
2018-10-04T22:47:14.137Z,11.10
2018-10-04T22:49:41.883Z,11.10
2018-10-04T22:52:09.422Z,11.00
2018-10-04T22:54:37.197Z,11.00
2018-10-04T22:57:04.842Z,11.00
2018-10-04T22:59:32.390Z,11.00
2018-10-04T23:02:00.167Z,11.00
2018-10-04T23:04:27.611Z,10.90
2018-10-04T23:06:55.265Z,10.90
2018-10-04T23:09:22.777Z,10.90
2018-10-04T23:11:50.521Z,11.00
2018-10-04T23:14:19.632Z,10.90
2018-10-04T23:16:47.210Z,10.90
2018-10-04T23:19:15.234Z,10.90
2018-10-04T23:21:42.845Z,10.90
2018-10-04T23:24:10.453Z,10.90
2018-10-04T23:26:38.164Z,10.80
2018-10-04T23:29:05.870Z,10.80
2018-10-04T23:31:33.606Z,10.80
2018-10-04T23:34:01.718Z,10.80
2018-10-04T23:36:29.258Z,10.80
2018-10-04T23:38:56.729Z,10.80
2018-10-04T23:41:24.346Z,10.80
2018-10-04T23:43:52.025Z,10.80
2018-10-04T23:46:20.241Z,10.80
2018-10-04T23:48:47.735Z,10.80
2018-10-04T23:51:15.293Z,10.80
2018-10-04T23:53:43.218Z,10.80
2018-10-04T23:56:10.898Z,10.80
2018-10-04T23:58:38.415Z,10.80
